Airfield :







YOU CAN JOIN US ON...

 
LOGIN :

Register | Disclaimer

   EN    FR    IT 

 









Legend :    VFR   Marginal VFR   IFR   Intensive IFR   Very Intensive IFR
Visi :
Ceiling :
>= 8 km
>= 3000ft
5 to 8 km
1000 to 3000 ft
1500m to 5 km
500 to 1000 ft
800 to 1500m
200 to 500 ft
< 800m
< 200 ft
Symbols :   Thunderstorms  Fog  Heavy snow  Heavy precipitations  Wind > 20 kt







- Airport Elevation : 792 ft
- IATA code : YSC


CYSC - Sherbrooke

CURRENT METAR :
  • 252300Z AUTO 24006KT 200V270 9SM FEW240 M05/M17 A3001 RMK SLP179

EXPIRED METARs :
  • 252200Z AUTO 25011G18KT 9SM FEW250 M04/M17 A3000 RMK SLP175
  • 252100Z AUTO 25015G21KT 9SM FEW240 M03/M17 A2999 RMK SLP174

TAF TAF CYSC
Valid from the 26 at 00:00 until the 26 at 03:00 UTC


252339Z 2600/2603 25008KT P6SM FEW240 RMK FCST BASED ON AUTO OBS. NXT FCST WILL BE ISSUED AT 261045Z
CZUL FIR / North America



MET'MAP, your aeronautical weather chart ! - Copyright ORBIFLY December 2007 - Disclaimer

ORBIFLY MET'MAP TEAM :

Programming & Development : Alexandra Zaïnal
Concept & Development : Baudouin d'Aumeries
Co-Development & Prog : Marc-Olivier Méhu
Technical & hardware support : Manuel Goepfert

Contact : metmap@orbifly.com




SOURCES & CREDITS :

   NOAA